Time;durP1;ratioP1;P1;durP2;ratioP2;P2;SDS_P1;SDS_P2;PMS_P1;PMS_P2;Temp;Humidity;BMP_temperature;BMP_pressure;BME280_temperature;BME280_humidity;BME280_pressure;Samples;Min_cycle;Max_cycle;Signal;HPM_P1;HPM_P2
2022/07/28 00:00:55;;;;;;;;;;;;;;;19.79;41.12;99816.03;1091531;39;20450;-77
2022/07/28 00:01:58;;;;;;;;;;;;;;;19.73;41.21;99815.03;1088339;46;19933;-78
2022/07/28 00:02:59;;;;;;;;;;;;;;;19.74;40.90;99816.66;1088214;54;19927;-78
2022/07/28 00:04:03;;;;;;;;;;;;;;;19.79;40.90;99818.75;1088261;54;19938;-77
2022/07/28 00:05:05;;;;;;;;;;;;;;;19.82;41.03;99821.03;1088084;54;19949;-77
2022/07/28 00:06:09;;;;;;;;;;;;;;;19.82;41.24;99817.50;1087954;54;19946;-76
2022/07/28 00:07:10;;;;;;;;;;;;;;;19.86;40.74;99819.63;1087814;54;19957;-79
2022/07/28 00:08:14;;;;;;;;;;;;;;;19.84;40.83;99815.44;1088032;54;19923;-78
2022/07/28 00:09:15;;;;;;;;;;;;;;;19.79;41.29;99814.16;1087683;54;19942;-78
2022/07/28 00:10:20;;;;;;;;;;;;;;;19.70;41.49;99807.31;1087869;54;19998;-77
2022/07/28 00:11:22;;;;;;;;;;;;;;;19.73;41.23;99817.75;1087923;54;19942;-77
2022/07/28 00:12:26;;;;;;;;;;;;;;;19.75;41.34;99807.50;1089861;39;20392;-78
2022/07/28 00:13:27;;;;;;;;;;;;;;;19.71;41.18;99800.84;1087799;54;19946;-77
2022/07/28 00:14:38;;;;;;;;;;;;;;;19.68;41.35;99806.66;1088064;54;19979;-77
2022/07/28 00:15:41;;;;;;;;;;;;;;;19.73;41.45;99803.31;1087674;54;20457;-77
2022/07/28 00:16:45;;;;;;;;;;;;;;;19.75;41.48;99796.63;1087443;54;19943;-76
2022/07/28 00:17:46;;;;;;;;;;;;;;;19.77;41.41;99797.28;1087215;54;19942;-76
2022/07/28 00:18:52;;;;;;;;;;;;;;;19.76;41.37;99803.72;1087462;54;19953;-76
2022/07/28 00:19:53;;;;;;;;;;;;;;;19.82;40.93;99795.81;1087752;54;19946;-79
2022/07/28 00:20:57;;;;;;;;;;;;;;;19.80;41.29;99794.16;1087059;54;19942;-77
2022/07/28 00:21:58;;;;;;;;;;;;;;;19.82;41.26;99799.34;1087577;54;19951;-77
2022/07/28 00:23:02;;;;;;;;;;;;;;;19.86;40.84;99791.66;1086371;54;19947;-76
2022/07/28 00:24:03;;;;;;;;;;;;;;;19.85;40.97;99789.94;1086146;54;19950;-78
2022/07/28 00:25:08;;;;;;;;;;;;;;;19.84;40.92;99791.03;1085498;54;19951;-77
2022/07/28 00:26:11;;;;;;;;;;;;;;;19.85;41.02;99800.78;1086508;54;20084;-78
2022/07/28 00:27:16;;;;;;;;;;;;;;;19.80;41.17;99793.28;1086462;54;19957;-77
2022/07/28 00:28:17;;;;;;;;;;;;;;;19.75;41.44;99791.22;1087033;39;20401;-77
2022/07/28 00:29:21;;;;;;;;;;;;;;;19.69;41.57;99796.69;1086721;54;19947;-78
2022/07/28 00:30:24;;;;;;;;;;;;;;;19.67;41.49;99799.56;1087753;54;19942;-77
2022/07/28 00:31:28;;;;;;;;;;;;;;;19.72;41.21;99796.22;1088155;54;19950;-78
2022/07/28 00:32:32;;;;;;;;;;;;;;;19.79;41.22;99791.63;1088094;54;19990;-78
2022/07/28 00:33:33;;;;;;;;;;;;;;;19.74;41.31;99789.53;1087833;54;19943;-77
2022/07/28 00:34:37;;;;;;;;;;;;;;;19.73;41.24;99787.91;1087790;54;20787;-78
2022/07/28 00:35:38;;;;;;;;;;;;;;;19.72;41.28;99796.22;1087878;54;20012;-80
2022/07/28 00:36:42;;;;;;;;;;;;;;;19.63;41.73;99798.34;1088169;54;19939;-77
2022/07/28 00:37:43;;;;;;;;;;;;;;;19.66;41.72;99791.66;1088205;54;19927;-77
2022/07/28 00:38:47;;;;;;;;;;;;;;;19.58;41.75;99787.28;1088271;54;20441;-79
2022/07/28 00:39:48;;;;;;;;;;;;;;;19.61;41.86;99778.75;1091489;46;19962;-79
2022/07/28 00:42:08;;;;;;;;;;;;;;;19.59;41.70;99786.25;1088001;54;19926;-79
2022/07/28 00:43:09;;;;;;;;;;;;;;;19.63;41.39;99788.31;1088203;54;19927;-79
2022/07/28 00:44:13;;;;;;;;;;;;;;;19.62;41.54;99791.25;1091485;39;20715;-82
2022/07/28 00:45:14;;;;;;;;;;;;;;;19.53;41.60;99784.38;1087985;54;19946;-81
2022/07/28 00:46:19;;;;;;;;;;;;;;;19.52;41.90;99782.72;1087830;54;20804;-82
2022/07/28 00:47:22;;;;;;;;;;;;;;;19.43;42.08;99788.34;1088025;54;19945;-81
2022/07/28 00:48:26;;;;;;;;;;;;;;;19.36;42.39;99786.69;1090250;39;20474;-82
2022/07/28 00:49:27;;;;;;;;;;;;;;;19.37;42.09;99788.34;1088216;54;19934;-82
2022/07/28 00:50:31;;;;;;;;;;;;;;;19.42;41.92;99783.97;1093323;39;20194;-80
2022/07/28 00:51:33;;;;;;;;;;;;;;;19.35;42.52;99780.44;1087792;54;19942;-81
2022/07/28 00:52:37;;;;;;;;;;;;;;;19.29;42.29;99783.97;1087673;54;20594;-82
2022/07/28 00:53:38;;;;;;;;;;;;;;;19.23;42.60;99782.09;1087876;54;19946;-81
2022/07/28 00:54:42;;;;;;;;;;;;;;;19.18;42.79;99786.25;1088131;54;19947;-83
2022/07/28 00:55:43;;;;;;;;;;;;;;;19.25;42.69;99783.56;1088003;54;19958;-82
2022/07/28 00:56:47;;;;;;;;;;;;;;;19.25;42.69;99782.72;1089684;39;20439;-82
2022/07/28 00:57:48;;;;;;;;;;;;;;;19.22;42.79;99788.56;1088132;54;19939;-82
2022/07/28 00:58:52;;;;;;;;;;;;;;;19.20;42.98;99787.91;1088110;54;19927;-83
2022/07/28 00:59:53;;;;;;;;;;;;;;;19.16;42.84;99779.38;1088258;54;20465;-82
2022/07/28 01:00:57;;;;;;;;;;;;;;;19.13;42.81;99777.94;1088250;54;20836;-83
2022/07/28 01:02:00;;;;;;;;;;;;;;;19.17;42.94;99781.06;1087880;54;19947;-79
2022/07/28 01:03:05;;;;;;;;;;;;;;;19.21;42.69;99778.75;1087447;54;19950;-78
2022/07/28 01:04:09;;;;;;;;;;;;;;;19.15;42.70;99778.56;1088110;54;19943;-77
2022/07/28 01:05:11;;;;;;;;;;;;;;;19.13;42.81;99779.78;1087618;54;19926;-78
2022/07/28 01:06:20;;;;;;;;;;;;;;;19.07;43.23;99781.47;1087827;54;19952;-78
2022/07/28 01:07:28;;;;;;;;;;;;;;;19.02;43.20;99789.38;1088185;54;19950;-78
2022/07/28 01:08:36;;;;;;;;;;;;;;;19.02;43.07;99781.25;1088128;54;19982;-78
2022/07/28 01:09:48;;;;;;;;;;;;;;;19.05;43.50;99775.44;1087818;54;19943;-78
2022/07/28 01:10:55;;;;;;;;;;;;;;;19.03;43.48;99777.50;1088044;39;20440;-81
2022/07/28 01:12:00;;;;;;;;;;;;;;;19.01;43.13;99766.88;1087565;54;19950;-79
2022/07/28 01:13:03;;;;;;;;;;;;;;;19.04;43.36;99778.31;1088170;54;19951;-83
2022/07/28 01:14:10;;;;;;;;;;;;;;;19.05;43.17;99766.44;1088223;54;19941;-82
2022/07/28 01:15:17;;;;;;;;;;;;;;;19.02;43.30;99783.94;1089695;39;20540;-81
2022/07/28 01:16:21;;;;;;;;;;;;;;;19.01;43.34;99779.56;1088210;54;19938;-82
2022/07/28 01:17:28;;;;;;;;;;;;;;;19.04;43.43;99778.31;1088049;54;20504;-81
2022/07/28 01:18:38;;;;;;;;;;;;;;;19.02;43.29;99779.38;1088274;54;19943;-82
2022/07/28 01:19:42;;;;;;;;;;;;;;;19.02;43.43;99776.69;1088192;54;19950;-82
2022/07/28 01:20:48;;;;;;;;;;;;;;;18.99;43.59;99773.53;1088158;54;19943;-82
2022/07/28 01:21:50;;;;;;;;;;;;;;;18.96;43.45;99771.25;1088275;54;19942;-81
2022/07/28 01:23:03;;;;;;;;;;;;;;;18.94;43.64;99771.44;1088270;46;19962;-82
2022/07/28 01:24:08;;;;;;;;;;;;;;;18.89;43.53;99770.38;1088168;54;19935;-82
2022/07/28 01:25:18;;;;;;;;;;;;;;;18.86;43.62;99772.44;1088021;54;19950;-82
2022/07/28 01:26:28;;;;;;;;;;;;;;;18.86;43.72;99774.31;1087735;54;19966;-82
2022/07/28 01:27:39;;;;;;;;;;;;;;;18.92;43.67;99780.78;1087389;54;20003;-80
2022/07/28 01:28:51;;;;;;;;;;;;;;;18.91;43.93;99776.41;1087548;54;19942;-82
2022/07/28 01:30:03;;;;;;;;;;;;;;;18.90;43.77;99772.03;1087771;54;19927;-82
2022/07/28 01:31:10;;;;;;;;;;;;;;;18.88;43.80;99761.41;1088059;54;19950;-82
2022/07/28 01:32:15;;;;;;;;;;;;;;;18.83;43.94;99766.63;1087931;54;19943;-81
2022/07/28 01:33:20;;;;;;;;;;;;;;;18.84;44.33;99769.13;1088060;54;19982;-80
2022/07/28 01:34:27;;;;;;;;;;;;;;;18.78;44.45;99759.13;1092544;39;20424;-82
2022/07/28 01:35:32;;;;;;;;;;;;;;;18.76;44.48;99766.59;1088022;54;19942;-82
2022/07/28 01:36:37;;;;;;;;;;;;;;;18.78;44.53;99763.69;1087957;54;19942;-81
2022/07/28 01:37:43;;;;;;;;;;;;;;;18.78;44.34;99769.09;1088044;54;19927;-81
2022/07/28 01:38:46;;;;;;;;;;;;;;;18.78;44.61;99761.81;1088096;54;19942;-83
2022/07/28 01:39:52;;;;;;;;;;;;;;;18.79;44.33;99763.50;1088076;54;19942;-84
2022/07/28 01:40:54;;;;;;;;;;;;;;;18.73;44.62;99760.75;1088012;54;19950;-82
2022/07/28 01:41:59;;;;;;;;;;;;;;;18.73;44.60;99758.88;1087829;54;20531;-83
2022/07/28 01:43:04;;;;;;;;;;;;;;;18.79;44.57;99762.63;1087854;54;19930;-81
2022/07/28 01:44:07;;;;;;;;;;;;;;;18.80;44.62;99762.44;1087822;54;19942;-82
2022/07/28 01:45:12;;;;;;;;;;;;;;;18.84;44.57;99771.81;1088059;39;20531;-82
2022/07/28 01:46:20;;;;;;;;;;;;;;;18.86;44.19;99766.19;1087970;39;20723;-82
2022/07/28 01:47:22;;;;;;;;;;;;;;;18.91;44.39;99773.69;1087820;54;19945;-79
2022/07/28 01:48:33;;;;;;;;;;;;;;;18.85;44.50;99759.94;1087852;54;20035;-79
2022/07/28 01:49:37;;;;;;;;;;;;;;;18.79;44.42;99758.06;1087921;54;19933;-80
2022/07/28 01:50:41;;;;;;;;;;;;;;;18.77;44.47;99762.00;1087885;54;19947;-80
2022/07/28 01:51:43;;;;;;;;;;;;;;;18.72;44.84;99757.22;1091890;39;20387;-79
2022/07/28 01:52:48;;;;;;;;;;;;;;;18.66;44.78;99755.34;1087851;54;19950;-81
2022/07/28 01:53:51;;;;;;;;;;;;;;;18.63;44.92;99755.72;1087835;54;19950;-80
2022/07/28 01:54:55;;;;;;;;;;;;;;;18.62;44.67;99759.47;1088413;54;19949;-79
2022/07/28 01:55:57;;;;;;;;;;;;;;;18.63;44.76;99766.56;1088410;54;19943;-80
2022/07/28 01:57:02;;;;;;;;;;;;;;;18.62;44.71;99757.63;1088440;54;19943;-80
2022/07/28 01:58:03;;;;;;;;;;;;;;;18.66;44.70;99760.75;1088407;54;19949;-79
2022/07/28 01:59:08;;;;;;;;;;;;;;;18.68;45.05;99759.50;1088561;54;19958;-81
2022/07/28 02:00:11;;;;;;;;;;;;;;;18.67;45.00;99757.81;1088289;54;19950;-81
2022/07/28 02:01:15;;;;;;;;;;;;;;;18.76;44.83;99760.34;1087581;54;20027;-77
2022/07/28 02:02:20;;;;;;;;;;;;;;;18.77;44.78;99759.31;1087363;54;19950;-83
2022/07/28 02:03:24;;;;;;;;;;;;;;;18.78;44.81;99761.81;1087288;54;19947;-80
2022/07/28 02:04:26;;;;;;;;;;;;;;;18.75;44.59;99759.50;1088149;54;19942;-79
2022/07/28 02:05:31;;;;;;;;;;;;;;;18.67;45.13;99759.72;1088449;54;19939;-81
2022/07/28 02:06:32;;;;;;;;;;;;;;;18.61;44.93;99758.66;1088397;54;19934;-83
2022/07/28 02:07:37;;;;;;;;;;;;;;;18.56;45.31;99766.56;1088541;54;19934;-84
2022/07/28 02:08:42;;;;;;;;;;;;;;;18.60;45.35;99761.56;1088323;54;19949;-85
2022/07/28 02:09:44;;;;;;;;;;;;;;;18.56;45.39;99766.56;1086119;54;19947;-81
2022/07/28 02:11:38;;;;;;;;;;;;;;;18.52;45.62;99762.59;1087172;54;19946;-78
2022/07/28 02:12:17;;;;;;;;;;;;;;;18.58;45.63;99763.66;1086781;54;20536;-79
2022/07/28 02:13:21;;;;;;;;;;;;;;;18.54;45.43;99764.03;1087404;54;20448;-78
2022/07/28 02:14:23;;;;;;;;;;;;;;;18.56;45.39;99763.88;1086981;54;19939;-79
2022/07/28 02:15:28;;;;;;;;;;;;;;;18.55;45.68;99759.47;1086775;54;19950;-77
2022/07/28 02:16:31;;;;;;;;;;;;;;;18.52;45.52;99749.88;1087269;54;19970;-78
2022/07/28 02:17:41;;;;;;;;;;;;;;;18.51;45.80;99748.22;1088462;54;19927;-78
2022/07/28 02:18:43;;;;;;;;;;;;;;;18.43;45.70;99751.09;1090521;39;20441;-77
2022/07/28 02:19:50;;;;;;;;;;;;;;;18.43;45.89;99761.94;1088342;54;19949;-78
2022/07/28 02:20:52;;;;;;;;;;;;;;;18.41;45.86;99742.38;1088207;54;19947;-78
2022/07/28 02:21:57;;;;;;;;;;;;;;;18.42;45.99;99741.31;1088091;54;19949;-78
2022/07/28 02:22:58;;;;;;;;;;;;;;;18.38;45.75;99759.00;1088333;54;20003;-78
2022/07/28 02:24:08;;;;;;;;;;;;;;;18.34;45.90;99757.72;1088499;54;19950;-78
2022/07/28 02:25:13;;;;;;;;;;;;;;;18.33;46.04;99750.66;1088437;54;19949;-77
2022/07/28 02:26:22;;;;;;;;;;;;;;;18.35;46.12;99751.28;1088439;54;20547;-77
2022/07/28 02:27:36;;;;;;;;;;;;;;;18.38;45.91;99756.31;1088272;54;20002;-78
2022/07/28 02:28:42;;;;;;;;;;;;;;;18.41;45.97;99753.19;1088165;54;19947;-78
2022/07/28 02:29:49;;;;;;;;;;;;;;;18.37;46.23;99749.22;1090763;46;19951;-76
2022/07/28 02:31:02;;;;;;;;;;;;;;;18.44;45.93;99747.34;1088120;54;19927;-78
2022/07/28 02:32:11;;;;;;;;;;;;;;;18.46;46.15;99750.69;1088289;54;19962;-82
2022/07/28 02:33:19;;;;;;;;;;;;;;;18.41;45.90;99739.66;1088285;54;19942;-82
2022/07/28 02:34:23;;;;;;;;;;;;;;;18.36;46.09;99734.00;1090782;39;20416;-81
2022/07/28 02:35:30;;;;;;;;;;;;;;;18.32;46.24;99736.31;1088334;54;19943;-82
2022/07/28 02:36:34;;;;;;;;;;;;;;;18.30;46.60;99741.06;1088613;54;19978;-83
2022/07/28 02:37:39;;;;;;;;;;;;;;;18.23;46.74;99741.03;1088522;54;19931;-84
2022/07/28 02:38:41;;;;;;;;;;;;;;;18.19;46.54;99742.50;1088547;46;20022;-85
2022/07/28 02:39:45;;;;;;;;;;;;;;;18.16;46.89;99742.91;1090777;46;20514;-85
2022/07/28 02:40:48;;;;;;;;;;;;;;;18.10;46.86;99730.19;1088558;54;20622;-85
2022/07/28 02:45:03;;;;;;;;;;;;;;;18.19;47.00;99734.38;1088429;54;19946;-85
2022/07/28 02:46:07;;;;;;;;;;;;;;;18.21;46.52;99735.03;1088560;54;19994;-85
2022/07/28 02:47:13;;;;;;;;;;;;;;;18.19;46.77;99738.94;1088479;54;19982;-84
2022/07/28 02:48:18;;;;;;;;;;;;;;;18.21;46.89;99737.72;1088504;54;19977;-85
2022/07/28 02:49:24;;;;;;;;;;;;;;;18.17;46.72;99741.03;1088594;54;19938;-85
2022/07/28 02:50:27;;;;;;;;;;;;;;;18.15;47.05;99738.50;1091916;46;20521;-84
2022/07/28 02:51:32;;;;;;;;;;;;;;;18.12;46.82;99736.25;1088559;54;19938;-86
2022/07/28 02:52:34;;;;;;;;;;;;;;;18.11;46.92;99742.69;1088610;54;19939;-83
2022/07/28 02:53:46;;;;;;;;;;;;;;;18.08;47.11;99740.38;1088480;54;20018;-84
2022/07/28 02:54:48;;;;;;;;;;;;;;;18.09;47.04;99733.94;1088310;54;19934;-80
2022/07/28 02:55:52;;;;;;;;;;;;;;;18.04;47.35;99734.53;1087880;54;19942;-78
2022/07/28 02:56:56;;;;;;;;;;;;;;;18.01;47.57;99736.81;1087832;54;19974;-80
2022/07/28 02:58:01;;;;;;;;;;;;;;;18.01;47.18;99731.41;1088061;54;19942;-79
2022/07/28 02:59:03;;;;;;;;;;;;;;;18.02;47.42;99731.19;1089496;46;19942;-78
2022/07/28 03:00:07;;;;;;;;;;;;;;;18.01;47.37;99734.09;1091312;39;20508;-80
2022/07/28 03:01:10;;;;;;;;;;;;;;;18.04;47.23;99734.53;1088260;54;19943;-79
2022/07/28 03:02:14;;;;;;;;;;;;;;;18.13;47.22;99734.34;1088270;54;19935;-79
2022/07/28 03:03:18;;;;;;;;;;;;;;;18.09;47.17;99734.75;1088279;54;19942;-78
2022/07/28 03:04:55;;;;;;;;;;;;;;;18.08;47.47;99741.22;1088318;54;19970;-78
2022/07/28 03:05:43;;;;;;;;;;;;;;;18.05;47.53;99743.47;1088276;54;19934;-78
2022/07/28 03:06:47;;;;;;;;;;;;;;;18.03;47.49;99740.16;1088212;54;19955;-80
2022/07/28 03:07:51;;;;;;;;;;;;;;;18.01;47.29;99736.81;1088226;54;19969;-79
2022/07/28 03:08:55;;;;;;;;;;;;;;;18.01;47.24;99745.75;1089504;46;19954;-78
2022/07/28 03:09:56;;;;;;;;;;;;;;;18.00;47.61;99737.84;1088265;54;19946;-79
2022/07/28 03:11:10;;;;;;;;;;;;;;;17.97;47.43;99735.53;1089012;46;19941;-79
2022/07/28 03:12:11;;;;;;;;;;;;;;;17.98;47.50;99739.91;1088184;54;20623;-77
2022/07/28 03:13:15;;;;;;;;;;;;;;;17.98;47.48;99734.50;1087817;54;19954;-80
2022/07/28 03:14:16;;;;;;;;;;;;;;;17.99;47.42;99744.28;1087837;54;19942;-78
2022/07/28 03:15:20;;;;;;;;;;;;;;;17.97;47.38;99738.22;1088823;39;20468;-80
2022/07/28 03:16:21;;;;;;;;;;;;;;;17.95;47.77;99741.13;1088856;39;20400;-80
2022/07/28 03:17:25;;;;;;;;;;;;;;;17.96;47.67;99733.81;1087901;54;19993;-79
2022/07/28 03:18:28;;;;;;;;;;;;;;;17.98;47.52;99742.59;1087877;54;19943;-82
2022/07/28 03:19:32;;;;;;;;;;;;;;;18.00;47.73;99740.53;1087909;54;19967;-83
2022/07/28 03:20:36;;;;;;;;;;;;;;;17.97;47.68;99744.50;1088297;39;20181;-80
2022/07/28 03:21:40;;;;;;;;;;;;;;;17.93;47.63;99743.19;1089784;39;20440;-79
2022/07/28 03:22:43;;;;;;;;;;;;;;;17.94;47.76;99736.75;1088062;54;19942;-85
2022/07/28 03:23:47;;;;;;;;;;;;;;;17.96;47.63;99741.94;1088270;54;19943;-87
2022/07/28 03:24:52;;;;;;;;;;;;;;;18.01;47.57;99745.75;1088374;54;20024;-84
2022/07/28 03:25:56;;;;;;;;;;;;;;;18.00;47.73;99744.06;1088460;54;19953;-83
2022/07/28 03:27:01;;;;;;;;;;;;;;;18.03;47.78;99740.16;1088335;54;19935;-82
2022/07/28 03:28:06;;;;;;;;;;;;;;;17.97;48.02;99740.94;1088367;54;19927;-84
2022/07/28 03:29:09;;;;;;;;;;;;;;;17.93;48.01;99746.72;1088305;54;19938;-81
2022/07/28 03:30:15;;;;;;;;;;;;;;;17.91;47.85;99737.97;1093877;39;20578;-86
2022/07/28 03:31:17;;;;;;;;;;;;;;;17.91;48.05;99750.66;1088552;46;19942;-85
2022/07/28 03:32:22;;;;;;;;;;;;;;;17.88;48.08;99737.56;1088420;54;19999;-88
2022/07/28 03:33:23;;;;;;;;;;;;;;;17.83;48.12;99746.25;1088447;54;19927;-83
2022/07/28 03:35:40;;;;;;;;;;;;;;;17.80;48.17;99738.53;1088513;54;19948;-82
2022/07/28 03:36:47;;;;;;;;;;;;;;;17.77;48.29;99741.63;1088151;54;19943;-83
2022/07/28 03:37:54;;;;;;;;;;;;;;;17.81;48.11;99742.06;1088413;54;19943;-84
2022/07/28 03:38:58;;;;;;;;;;;;;;;17.86;48.40;99739.63;1088596;54;19919;-83
2022/07/28 03:40:02;;;;;;;;;;;;;;;17.83;48.35;99751.66;1088508;54;19974;-84
2022/07/28 03:41:05;;;;;;;;;;;;;;;17.83;48.32;99746.25;1088582;54;20110;-83
2022/07/28 03:42:11;;;;;;;;;;;;;;;17.77;48.24;99747.88;1088548;54;19943;-84
2022/07/28 03:43:13;;;;;;;;;;;;;;;17.75;48.56;99752.66;1088492;54;19938;-85
2022/07/28 03:46:25;;;;;;;;;;;;;;;17.84;48.09;99747.09;1088460;54;19930;-85
2022/07/28 03:47:26;;;;;;;;;;;;;;;17.88;47.91;99749.19;1088490;54;19943;-85
2022/07/28 03:48:33;;;;;;;;;;;;;;;17.82;48.28;99741.88;1088219;54;19934;-84
2022/07/28 03:49:34;;;;;;;;;;;;;;;17.80;48.52;99748.53;1088292;54;19974;-82
2022/07/28 03:50:41;;;;;;;;;;;;;;;17.78;48.62;99743.31;1089812;46;19934;-85
2022/07/28 03:52:48;;;;;;;;;;;;;;;17.81;48.31;99751.03;1088386;54;19950;-84
2022/07/28 03:53:49;;;;;;;;;;;;;;;17.72;48.33;99744.94;1097702;46;20174;-86
2022/07/28 03:54:54;;;;;;;;;;;;;;;17.74;48.21;99742.06;1088370;54;19949;-84
2022/07/28 03:55:56;;;;;;;;;;;;;;;17.70;48.69;99748.88;1088457;54;19928;-85
2022/07/28 03:57:00;;;;;;;;;;;;;;;17.77;48.55;99742.47;1088536;54;19927;-85
2022/07/28 03:58:01;;;;;;;;;;;;;;;17.85;48.22;99744.19;1089687;46;19927;-86
2022/07/28 03:59:05;;;;;;;;;;;;;;;17.85;48.22;99749.59;1088433;54;19983;-84
2022/07/28 04:00:07;;;;;;;;;;;;;;;17.89;48.08;99748.16;1088423;54;19934;-84
2022/07/28 04:01:12;;;;;;;;;;;;;;;17.85;48.29;99744.19;1088552;46;19962;-86
2022/07/28 04:02:13;;;;;;;;;;;;;;;17.82;48.31;99743.75;1088451;54;20554;-85
2022/07/28 04:03:17;;;;;;;;;;;;;;;17.83;48.42;99753.53;1088383;54;19943;-86
2022/07/28 04:04:18;;;;;;;;;;;;;;;17.82;48.30;99743.75;1088536;54;19927;-87
2022/07/28 04:05:22;;;;;;;;;;;;;;;17.74;48.63;99744.75;1088361;54;19943;-85
2022/07/28 04:07:34;;;;;;;;;;;;;;;17.67;48.52;99747.41;1088257;54;19939;-87
2022/07/28 04:08:35;;;;;;;;;;;;;;;17.64;48.83;99746.97;1088485;54;19954;-84
2022/07/28 04:09:39;;;;;;;;;;;;;;;17.61;48.77;99743.63;1088511;54;20015;-83
2022/07/28 04:10:40;;;;;;;;;;;;;;;17.55;48.73;99749.00;1088524;54;20057;-84
2022/07/28 04:11:44;;;;;;;;;;;;;;;17.59;48.70;99744.88;1093362;46;19987;-80
2022/07/28 04:12:47;;;;;;;;;;;;;;;17.60;48.70;99747.38;1088228;54;19927;-82
2022/07/28 04:13:50;;;;;;;;;;;;;;;17.55;49.14;99749.84;1088211;54;19950;-87
2022/07/28 04:14:52;;;;;;;;;;;;;;;17.53;49.21;99746.50;1088663;46;19945;-83
2022/07/28 04:15:55;;;;;;;;;;;;;;;17.50;48.95;99749.59;1088330;54;20002;-80
2022/07/28 04:16:56;;;;;;;;;;;;;;;17.49;49.29;99745.22;1088006;54;19949;-83
2022/07/28 04:18:01;;;;;;;;;;;;;;;17.59;48.67;99753.81;1088251;54;19933;-82
2022/07/28 04:19:02;;;;;;;;;;;;;;;17.51;49.12;99745.84;1088286;54;19938;-79
2022/07/28 04:20:06;;;;;;;;;;;;;;;17.48;49.00;99746.22;1088283;54;20533;-86
2022/07/28 04:21:07;;;;;;;;;;;;;;;17.50;49.28;99746.88;1092570;39;20388;-83
2022/07/28 04:22:11;;;;;;;;;;;;;;;17.49;49.19;99749.78;1088250;54;19942;-84
2022/07/28 04:23:15;;;;;;;;;;;;;;;17.53;49.02;99754.59;1087903;54;19943;-85
2022/07/28 04:24:19;;;;;;;;;;;;;;;17.50;49.20;99752.28;1087760;54;20061;-82
2022/07/28 04:25:23;;;;;;;;;;;;;;;17.52;49.32;99741.28;1087738;54;19950;-80
2022/07/28 04:26:26;;;;;;;;;;;;;;;17.47;49.32;99747.28;1088222;54;19942;-80
2022/07/28 04:27:27;;;;;;;;;;;;;;;17.47;49.39;99747.28;1088193;54;19946;-84
2022/07/28 04:28:31;;;;;;;;;;;;;;;17.51;48.98;99748.56;1088122;54;20035;-82
2022/07/28 04:29:32;;;;;;;;;;;;;;;17.48;49.05;99748.94;1088311;54;19949;-84
2022/07/28 04:30:36;;;;;;;;;;;;;;;17.51;49.23;99743.16;1088258;54;19998;-81
2022/07/28 04:31:37;;;;;;;;;;;;;;;17.52;49.35;99747.53;1088190;54;19951;-87
2022/07/28 04:32:41;;;;;;;;;;;;;;;17.46;49.33;99751.03;1088423;47;19926;-82
2022/07/28 04:33:42;;;;;;;;;;;;;;;17.47;49.54;99744.59;1088182;54;19933;-81
2022/07/28 04:34:46;;;;;;;;;;;;;;;17.39;49.66;99750.13;1088345;54;19951;-81
2022/07/28 04:35:47;;;;;;;;;;;;;;;17.42;49.66;99753.28;1088235;54;19957;-84
2022/07/28 06:22:56;;;;;;;;;;;;;;;18.49;49.28;99755.72;1090277;46;20275;-82
2022/07/28 06:23:57;;;;;;;;;;;;;;;18.48;49.70;99759.47;1088557;54;19931;-82
2022/07/28 06:25:01;;;;;;;;;;;;;;;18.51;49.47;99750.94;1088612;54;19939;-81
2022/07/28 06:26:02;;;;;;;;;;;;;;;18.49;49.59;99747.59;1091091;46;20051;-83
2022/07/28 06:27:06;;;;;;;;;;;;;;;18.48;49.77;99759.47;1088465;54;19982;-80
2022/07/28 06:28:07;;;;;;;;;;;;;;;18.55;49.50;99757.59;1089089;46;19950;-81
2022/07/28 06:29:11;;;;;;;;;;;;;;;18.60;49.55;99750.75;1088436;54;19950;-81
2022/07/28 06:30:15;;;;;;;;;;;;;;;18.74;49.01;99759.72;1088506;54;19943;-82
2022/07/28 06:31:16;;;;;;;;;;;;;;;18.89;49.07;99759.56;1088511;54;19939;-85
2022/07/28 06:32:20;;;;;;;;;;;;;;;18.99;48.72;99754.56;1088460;54;19923;-84
2022/07/28 06:33:21;;;;;;;;;;;;;;;18.93;48.64;99755.41;1088498;54;19943;-83
2022/07/28 06:34:24;;;;;;;;;;;;;;;18.86;48.74;99763.47;1088398;47;19938;-82
2022/07/28 06:35:26;;;;;;;;;;;;;;;18.82;49.12;99752.22;1088464;54;19946;-81
2022/07/28 06:36:29;;;;;;;;;;;;;;;18.91;49.04;99750.16;1092506;39;20104;-83
2022/07/28 06:37:30;;;;;;;;;;;;;;;18.99;49.29;99754.56;1093664;46;19943;-83
2022/07/28 06:38:37;;;;;;;;;;;;;;;19.01;48.86;99757.91;1088416;54;19926;-81
2022/07/28 06:39:38;;;;;;;;;;;;;;;19.08;48.59;99747.06;1088693;46;20621;-83
2022/07/28 06:40:42;;;;;;;;;;;;;;;19.17;48.53;99748.53;1088385;54;19946;-81
2022/07/28 06:41:45;;;;;;;;;;;;;;;19.22;48.41;99746.06;1088287;54;19950;-82
2022/07/28 06:42:49;;;;;;;;;;;;;;;19.17;48.65;99751.25;1088010;54;20570;-80
2022/07/28 06:43:53;;;;;;;;;;;;;;;19.15;49.00;99758.75;1088028;54;19994;-83
2022/07/28 06:44:54;;;;;;;;;;;;;;;19.10;48.88;99755.84;1087989;54;19943;-82
2022/07/28 06:45:58;;;;;;;;;;;;;;;19.12;49.01;99754.59;1087999;54;20011;-82
2022/07/28 06:47:01;;;;;;;;;;;;;;;19.18;48.99;99755.63;1088015;54;19965;-82
2022/07/28 06:48:03;;;;;;;;;;;;;;;19.24;49.00;99752.06;1088107;46;19950;-83
2022/07/28 06:49:06;;;;;;;;;;;;;;;19.23;48.40;99750.41;1087917;54;19943;-81
2022/07/28 06:50:08;;;;;;;;;;;;;;;19.17;48.79;99749.38;1087925;54;20465;-83
2022/07/28 06:51:11;;;;;;;;;;;;;;;19.07;49.19;99758.94;1087936;54;19998;-82
2022/07/28 06:52:12;;;;;;;;;;;;;;;19.10;49.44;99748.53;1087934;54;19966;-82
2022/07/28 06:53:16;;;;;;;;;;;;;;;19.13;49.20;99747.28;1087928;54;19950;-82
2022/07/28 06:54:23;;;;;;;;;;;;;;;19.09;49.10;99746.88;1087947;54;20528;-82
2022/07/28 06:55:24;;;;;;;;;;;;;;;19.11;49.46;99744.78;1088043;54;19975;-84
2022/07/28 06:56:27;;;;;;;;;;;;;;;19.14;49.38;99748.94;1087984;54;19939;-83
2022/07/28 06:57:28;;;;;;;;;;;;;;;19.15;49.49;99747.91;1088322;54;19934;-84
2022/07/28 06:58:32;;;;;;;;;;;;;;;19.16;49.33;99741.44;1088498;54;19938;-82
2022/07/28 06:59:33;;;;;;;;;;;;;;;19.15;49.67;99745.19;1088300;54;19934;-83
2022/07/28 07:00:37;;;;;;;;;;;;;;;19.14;49.56;99752.50;1088562;54;19983;-84
2022/07/28 07:01:41;;;;;;;;;;;;;;;19.14;49.49;99747.09;1088273;54;19950;-84
2022/07/28 07:02:42;;;;;;;;;;;;;;;19.10;49.76;99750.41;1088209;54;20651;-85
2022/07/28 07:03:46;;;;;;;;;;;;;;;19.13;49.83;99744.56;1088195;54;19945;-83
2022/07/28 07:04:47;;;;;;;;;;;;;;;19.26;49.44;99743.75;1088368;54;19943;-85
2022/07/28 07:05:51;;;;;;;;;;;;;;;19.34;49.45;99740.81;1088200;54;19934;-84
2022/07/28 07:06:52;;;;;;;;;;;;;;;19.36;49.07;99732.47;1088284;54;19949;-82
2022/07/28 07:07:55;;;;;;;;;;;;;;;19.32;49.52;99734.78;1092400;39;20127;-85
2022/07/28 07:08:57;;;;;;;;;;;;;;;19.39;49.56;99735.59;1088103;54;19949;-86
2022/07/28 07:10:03;;;;;;;;;;;;;;;19.49;49.10;99727.88;1088182;54;19949;-84
2022/07/28 07:11:04;;;;;;;;;;;;;;;19.64;48.87;99734.94;1088118;54;19955;-83
2022/07/28 07:12:08;;;;;;;;;;;;;;;19.73;49.23;99725.53;1088254;54;19943;-84
2022/07/28 07:13:10;;;;;;;;;;;;;;;19.90;48.44;99733.22;1088073;54;19943;-84
2022/07/28 07:14:13;;;;;;;;;;;;;;;19.97;48.42;99733.22;1088253;54;19954;-83
2022/07/28 07:15:15;;;;;;;;;;;;;;;20.06;48.42;99735.47;1088142;54;19949;-84
2022/07/28 07:16:18;;;;;;;;;;;;;;;20.10;48.32;99733.16;1088203;54;19994;-83
2022/07/28 07:17:19;;;;;;;;;;;;;;;20.14;48.27;99728.97;1088307;54;19946;-83
2022/07/28 07:18:23;;;;;;;;;;;;;;;20.25;48.29;99727.44;1088154;54;19927;-85
2022/07/28 07:19:24;;;;;;;;;;;;;;;20.42;48.20;99722.34;1088220;54;19934;-84
2022/07/28 07:20:30;;;;;;;;;;;;;;;20.45;47.51;99718.38;1088217;54;19943;-83
2022/07/28 07:21:31;;;;;;;;;;;;;;;20.51;47.47;99723.75;1088216;54;19988;-82
2022/07/28 07:22:35;;;;;;;;;;;;;;;20.66;47.43;99726.19;1088270;54;19927;-83
2022/07/28 07:23:36;;;;;;;;;;;;;;;20.84;47.65;99721.91;1088308;39;20665;-84
2022/07/28 07:24:40;;;;;;;;;;;;;;;20.84;47.13;99724.63;1089213;39;20567;-84
2022/07/28 07:25:50;;;;;;;;;;;;;;;20.85;47.18;99713.53;1087283;54;19959;-83
2022/07/28 07:26:51;;;;;;;;;;;;;;;20.86;47.04;99728.78;1088274;54;19950;-82
2022/07/28 07:27:55;;;;;;;;;;;;;;;20.93;46.95;99717.88;1088202;54;20536;-84
2022/07/28 07:28:56;;;;;;;;;;;;;;;21.09;46.69;99712.91;1088385;54;19942;-83
2022/07/28 07:30:00;;;;;;;;;;;;;;;21.31;46.21;99721.50;1088247;54;20002;-83